createdAt,value
2023-02-19T00:25:13.425Z,96159.09
2023-02-19T00:28:45.576Z,96158.13
2023-02-19T00:32:17.385Z,96171.91
2023-02-19T00:35:48.799Z,96168.14
2023-02-19T00:43:16.844Z,96173.84
2023-02-19T00:50:21.450Z,96161.58
2023-02-19T00:53:52.288Z,96163.71
2023-02-19T00:57:10.586Z,96165.77
2023-02-19T01:00:10.881Z,96159.88
2023-02-19T01:03:31.977Z,96168.14
2023-02-19T01:06:36.184Z,96156.08
2023-02-19T01:09:32.004Z,96162.89
2023-02-19T01:12:44.489Z,96164.22
2023-02-19T01:16:05.799Z,96170.07
2023-02-19T01:19:10.135Z,96170.75
2023-02-19T01:22:28.484Z,96159.79
2023-02-19T01:25:29.960Z,96156.63
2023-02-19T01:29:00.414Z,96150.61
2023-02-19T01:32:20.827Z,96158.67
2023-02-19T01:35:40.680Z,96145.61
2023-02-19T01:39:00.624Z,96139.89
2023-02-19T01:42:33.639Z,96129.20
2023-02-19T01:46:16.254Z,96138.02
2023-02-19T01:49:14.357Z,96141.98
2023-02-19T01:52:35.500Z,96130.29
2023-02-19T01:55:56.857Z,96149.16
2023-02-19T01:58:59.200Z,96143.67
2023-02-19T02:02:11.000Z,96136.40
2023-02-19T02:05:32.001Z,96144.30
2023-02-19T02:08:43.084Z,96150.86
2023-02-19T02:11:57.213Z,96145.73
2023-02-19T02:14:59.345Z,96153.52
2023-02-19T02:18:23.262Z,96145.54
2023-02-19T02:21:54.010Z,96146.88
2023-02-19T02:25:07.374Z,96135.79
2023-02-19T02:28:44.648Z,96145.46
2023-02-19T02:32:14.424Z,96140.04
2023-02-19T02:35:30.464Z,96148.02
2023-02-19T02:38:21.433Z,96153.31
2023-02-19T02:41:37.184Z,96149.54
2023-02-19T02:44:55.386Z,96147.11
2023-02-19T02:48:04.914Z,96147.98
2023-02-19T02:51:01.887Z,96162.05
2023-02-19T02:54:19.956Z,96159.14
2023-02-19T02:57:40.796Z,96165.52
2023-02-19T03:00:52.987Z,96179.02
2023-02-19T03:04:23.631Z,96175.38
2023-02-19T03:07:48.640Z,96166.90
2023-02-19T03:11:08.304Z,96169.25
2023-02-19T03:14:28.042Z,96175.66
2023-02-19T03:17:51.460Z,96184.83
2023-02-19T03:21:23.099Z,96187.26
2023-02-19T03:24:42.500Z,96197.23
2023-02-19T03:27:57.298Z,96208.61
2023-02-19T03:31:09.801Z,96195.25
2023-02-19T03:34:22.288Z,96199.90
2023-02-19T03:37:41.318Z,96209.05
2023-02-19T03:41:13.900Z,96213.91
2023-02-19T03:44:43.363Z,96220.20
2023-02-19T03:48:14.989Z,96231.77
2023-02-19T03:51:45.098Z,96232.77
2023-02-19T03:54:53.956Z,96235.44
2023-02-19T03:58:20.507Z,96235.92
2023-02-19T04:01:36.139Z,96245.11
2023-02-19T04:05:04.487Z,96243.61
2023-02-19T04:08:11.153Z,96249.85
2023-02-19T04:11:23.565Z,96256.36
2023-02-19T04:14:41.473Z,96254.77
2023-02-19T04:17:44.706Z,96253.15
2023-02-19T04:20:59.617Z,96258.77
2023-02-19T04:24:16.128Z,96262.42
2023-02-19T04:27:29.754Z,96267.18
2023-02-19T04:30:51.942Z,96272.44
2023-02-19T04:34:04.829Z,96279.85
2023-02-19T04:37:08.206Z,96289.15
2023-02-19T04:40:12.022Z,96292.23
2023-02-19T04:43:32.284Z,96296.02
2023-02-19T04:46:37.517Z,96302.67
2023-02-19T04:49:37.543Z,96310.84
2023-02-19T04:52:40.132Z,96309.33
2023-02-19T04:55:35.842Z,96310.79
2023-02-19T04:58:23.375Z,96311.70
2023-02-19T05:01:25.432Z,96309.71
2023-02-19T05:04:33.165Z,96304.79
2023-02-19T05:07:32.260Z,96303.29
2023-02-19T05:10:36.533Z,96304.96
2023-02-19T05:14:06.842Z,96306.48
2023-02-19T05:17:28.988Z,96304.11
2023-02-19T05:20:27.305Z,96305.72
2023-02-19T05:23:58.601Z,96304.42
2023-02-19T05:27:00.996Z,96309.33
2023-02-19T05:30:21.179Z,96308.58
2023-02-19T05:33:21.916Z,96307.84
2023-02-19T05:36:42.003Z,96307.08
2023-02-19T05:39:55.659Z,96303.67
2023-02-19T05:43:01.838Z,96298.95
2023-02-19T05:46:14.268Z,96301.23
2023-02-19T05:49:35.776Z,96297.16
2023-02-19T05:52:12.040Z,96287.66
2023-02-19T05:55:15.621Z,96288.89
2023-02-19T05:58:31.700Z,96292.84
2023-02-19T06:01:57.720Z,96289.27
2023-02-19T06:04:44.082Z,96283.66
2023-02-19T06:07:56.829Z,96276.70
2023-02-19T06:11:12.723Z,96268.21
2023-02-19T06:14:24.837Z,96269.19
2023-02-19T06:17:48.964Z,96264.49
2023-02-19T06:20:49.781Z,96265.63
2023-02-19T06:24:01.796Z,96269.56
2023-02-19T06:27:20.988Z,96267.64
2023-02-19T06:30:27.583Z,96265.63
2023-02-19T06:33:39.163Z,96258.27
2023-02-19T06:36:40.548Z,96265.79
2023-02-19T06:39:45.886Z,96261.63
2023-02-19T06:43:00.694Z,96265.37
2023-02-19T06:45:49.307Z,96263.52
2023-02-19T06:48:29.355Z,96264.21
2023-02-19T06:51:25.180Z,96258.63
2023-02-19T06:54:36.557Z,96258.08
2023-02-19T06:57:59.609Z,96239.16
2023-02-19T07:01:12.865Z,96239.32
2023-02-19T07:04:35.321Z,96238.61
2023-02-19T07:07:43.390Z,96234.77
2023-02-19T07:10:38.518Z,96224.05
2023-02-19T07:13:39.363Z,96232.58
2023-02-19T07:16:51.706Z,96231.45
2023-02-19T07:19:48.033Z,96225.60
2023-02-19T07:23:09.292Z,96224.82
2023-02-19T07:26:05.928Z,96229.11
2023-02-19T07:29:04.292Z,96224.90
2023-02-19T07:31:54.362Z,96222.05
2023-02-19T07:34:38.821Z,96222.55
2023-02-19T07:37:37.592Z,96217.45
2023-02-19T07:40:40.900Z,96224.16
2023-02-19T07:43:53.821Z,96223.66
2023-02-19T07:47:08.524Z,96225.19
2023-02-19T07:50:14.605Z,96209.44
2023-02-19T07:53:25.994Z,96203.50
2023-02-19T07:56:26.735Z,96208.78
2023-02-19T07:59:22.419Z,96206.64
2023-02-19T08:02:42.088Z,96204.13
2023-02-19T08:05:34.842Z,96208.02
2023-02-19T08:08:46.964Z,96205.89
2023-02-19T08:11:57.663Z,96199.98
2023-02-19T08:14:59.044Z,96196.35
2023-02-19T08:18:22.180Z,96193.43
2023-02-19T08:21:18.508Z,96187.38
2023-02-19T08:23:59.119Z,96178.44
2023-02-19T08:26:59.261Z,96182.98
2023-02-19T08:30:04.852Z,96168.50
2023-02-19T08:33:27.704Z,96166.38
2023-02-19T08:36:43.210Z,96172.67
2023-02-19T08:39:42.482Z,96170.97
2023-02-19T08:42:50.523Z,96163.27
2023-02-19T08:46:02.209Z,96158.19
2023-02-19T08:49:24.500Z,96159.96
2023-02-19T08:52:37.430Z,96151.47
2023-02-19T08:55:59.699Z,96151.60
2023-02-19T08:59:25.640Z,96148.52
2023-02-19T09:02:49.686Z,96146.25
2023-02-19T09:06:14.340Z,96140.77
2023-02-19T09:09:23.502Z,96139.05
2023-02-19T09:42:11.144Z,96137.83
2023-02-19T09:45:38.772Z,96128.46
2023-02-19T09:48:51.180Z,96129.89
2023-02-19T09:52:16.393Z,96123.94
2023-02-19T09:55:46.996Z,96127.52
2023-02-19T09:59:11.699Z,96138.45
2023-02-19T10:02:32.853Z,96126.86
2023-02-19T10:06:08.752Z,96126.33
2023-02-19T10:16:11.683Z,96109.20
2023-02-19T10:26:41.112Z,96100.52
2023-02-19T10:29:51.012Z,96088.63
2023-02-19T10:33:14.725Z,96093.83
2023-02-19T10:36:46.880Z,96089.98
2023-02-19T10:40:17.676Z,96072.17
2023-02-19T10:43:42.652Z,96065.21
2023-02-19T10:46:56.173Z,96059.21
2023-02-19T10:50:23.323Z,96053.36
2023-02-19T10:53:36.151Z,96032.66
2023-02-19T10:56:36.748Z,96042.02
2023-02-19T10:59:39.197Z,96048.27
2023-02-19T11:02:49.834Z,96053.52
2023-02-19T11:05:41.797Z,96057.63
2023-02-19T11:09:14.040Z,96049.95
2023-02-19T11:12:14.832Z,96043.77
2023-02-19T11:14:57.219Z,96040.52
2023-02-19T11:18:03.764Z,96040.68
2023-02-19T11:21:13.481Z,96043.23
2023-02-19T11:24:36.183Z,96049.14
2023-02-19T11:27:49.572Z,96040.75
2023-02-19T11:30:51.819Z,96035.05
2023-02-19T11:34:13.692Z,96037.09
2023-02-19T11:37:49.701Z,96053.10
2023-02-19T11:40:58.477Z,96046.66
2023-02-19T11:44:38.132Z,96048.20
2023-02-19T11:48:04.813Z,96058.08
2023-02-19T11:51:38.021Z,96061.02
2023-02-19T11:54:57.006Z,96065.53
2023-02-19T11:58:09.274Z,96081.67
2023-02-19T12:01:21.115Z,96079.98
2023-02-19T12:04:18.702Z,96060.48
2023-02-19T12:07:42.283Z,96068.29
2023-02-19T12:11:05.392Z,96069.92
2023-02-19T12:14:27.679Z,96072.78
2023-02-19T12:17:56.437Z,96060.05
2023-02-19T12:21:22.338Z,96059.48
2023-02-19T12:24:54.534Z,96055.83
2023-02-19T12:28:21.942Z,96058.00
2023-02-19T12:31:46.066Z,96053.71
2023-02-19T12:35:13.907Z,96066.08
2023-02-19T12:38:23.558Z,96071.48
2023-02-19T12:41:45.133Z,96078.50
2023-02-19T12:44:56.194Z,96070.89
2023-02-19T12:48:07.353Z,96089.11
2023-02-19T12:51:07.013Z,96068.06
2023-02-19T12:54:12.973Z,96070.98
2023-02-19T12:57:24.847Z,96068.72
2023-02-19T13:00:32.991Z,96085.30
2023-02-19T13:03:55.296Z,96080.18
2023-02-19T13:07:14.902Z,96081.96
2023-02-19T13:10:47.057Z,96083.47
2023-02-19T13:13:32.434Z,96087.48
2023-02-19T13:16:34.087Z,96086.00
2023-02-19T13:20:05.405Z,96090.80
2023-02-19T13:23:28.284Z,96090.98
2023-02-19T13:26:56.044Z,96076.04
2023-02-19T13:30:34.577Z,96070.05
2023-02-19T13:33:45.976Z,96059.02
2023-02-19T13:36:53.257Z,96048.80
2023-02-19T13:40:05.571Z,96052.84
2023-02-19T13:43:47.843Z,96036.23
2023-02-19T13:47:19.618Z,96037.56
2023-02-19T13:50:51.626Z,96035.75
2023-02-19T13:54:26.476Z,96024.11
2023-02-19T13:57:54.150Z,96028.69
2023-02-19T15:45:00.304Z,95974.76
2023-02-19T15:48:07.571Z,95990.30
2023-02-19T15:51:40.606Z,95991.20
2023-02-19T15:55:18.662Z,95994.09
2023-02-19T15:58:50.641Z,95987.70
2023-02-19T16:02:22.270Z,95988.18
2023-02-19T16:05:57.363Z,96004.86
2023-02-19T16:09:27.078Z,95992.00
2023-02-19T16:12:59.097Z,95987.72
2023-02-19T16:16:32.512Z,96003.79
2023-02-19T16:20:04.166Z,95979.91
2023-02-19T16:23:40.781Z,95983.29
2023-02-19T16:27:13.139Z,95975.61
2023-02-19T16:30:47.569Z,95961.11
2023-02-19T16:34:05.626Z,95943.48
2023-02-19T16:37:37.432Z,95934.38
2023-02-19T16:41:08.194Z,95930.40
2023-02-19T16:44:39.877Z,95931.98
2023-02-19T16:48:10.890Z,95937.59
2023-02-19T16:51:41.276Z,95947.08
2023-02-19T16:55:12.687Z,95973.45
2023-02-19T16:58:45.113Z,95991.93
2023-02-19T17:02:16.515Z,96000.73
2023-02-19T17:05:50.333Z,96001.59
2023-02-19T17:09:24.394Z,96012.58
2023-02-19T17:12:58.205Z,95988.73
2023-02-19T17:16:32.328Z,96002.13
2023-02-19T17:20:06.033Z,96001.67
2023-02-19T17:23:36.075Z,96013.19
2023-02-19T17:27:05.517Z,96024.15
2023-02-19T17:30:39.810Z,96028.90
2023-02-19T17:34:00.626Z,96030.15
2023-02-19T17:37:31.878Z,96027.84
2023-02-19T17:41:02.895Z,96010.61
2023-02-19T17:54:49.612Z,96032.13
2023-02-19T17:58:22.388Z,96034.02
2023-02-19T18:05:27.200Z,96035.23
2023-02-19T18:09:00.950Z,96035.53
2023-02-19T18:12:32.165Z,96027.90
2023-02-19T18:15:59.047Z,96035.35
2023-02-19T18:19:22.997Z,96038.76
2023-02-19T18:22:54.824Z,96044.17
2023-02-19T18:26:22.063Z,96043.79
2023-02-19T18:29:54.541Z,96048.52
2023-02-19T18:33:30.429Z,96040.72
2023-02-19T18:37:00.481Z,96053.25
2023-02-19T18:40:23.538Z,96062.77
2023-02-19T18:43:29.783Z,96070.16
2023-02-19T18:47:02.192Z,96088.36
2023-02-19T19:14:27.783Z,96223.17
2023-02-19T19:17:59.673Z,96251.48
2023-02-19T19:28:40.853Z,96271.71
2023-02-19T19:35:39.558Z,96280.45
2023-02-19T19:39:10.103Z,96280.41
2023-02-19T19:42:43.605Z,96287.85
2023-02-19T19:46:17.192Z,96290.34
2023-02-19T19:49:49.412Z,96291.98
2023-02-19T19:53:23.258Z,96292.80
2023-02-19T19:56:49.152Z,96291.31
2023-02-19T20:00:22.977Z,96292.73
2023-02-19T20:03:45.626Z,96295.99
2023-02-19T20:07:17.083Z,96302.69
2023-02-19T20:10:48.732Z,96297.90
2023-02-19T20:14:22.855Z,96293.48
2023-02-19T20:17:55.324Z,96289.21
2023-02-19T20:21:26.399Z,96291.48
2023-02-19T20:25:00.758Z,96290.95
2023-02-19T20:28:32.861Z,96293.96
2023-02-19T20:32:04.193Z,96297.64
2023-02-19T20:35:35.560Z,96299.04
2023-02-19T20:39:06.932Z,96299.74
2023-02-19T20:42:39.370Z,96312.64
2023-02-19T20:46:14.326Z,96316.20
2023-02-19T20:49:48.355Z,96314.00
2023-02-19T20:53:21.475Z,96325.30
2023-02-19T21:00:23.817Z,96333.59
2023-02-19T21:03:58.162Z,96342.93
2023-02-19T21:07:30.265Z,96359.23
2023-02-19T21:10:50.828Z,96373.83
2023-02-19T21:14:22.229Z,96394.20
2023-02-19T21:17:54.228Z,96414.09
2023-02-19T21:21:27.792Z,96413.85
2023-02-19T21:24:59.816Z,96423.56
2023-02-19T21:28:32.632Z,96436.40
2023-02-19T21:32:04.900Z,96445.40
2023-02-19T21:35:36.900Z,96452.55
2023-02-19T21:39:00.628Z,96455.91
2023-02-19T22:06:45.766Z,96493.44
2023-02-19T22:10:18.628Z,96504.14
2023-02-19T22:17:21.261Z,96531.25
2023-02-19T22:20:54.027Z,96549.05
2023-02-19T22:24:25.495Z,96555.98
2023-02-19T22:27:58.898Z,96561.08
2023-02-19T22:31:30.868Z,96564.48
2023-02-19T22:35:02.944Z,96570.23
2023-02-19T22:38:35.013Z,96565.92
2023-02-19T22:42:05.995Z,96573.73
2023-02-19T22:45:37.183Z,96570.21
2023-02-19T22:49:09.354Z,96568.46
2023-02-19T22:52:44.542Z,96570.38
2023-02-19T22:56:15.986Z,96575.04
2023-02-19T22:59:47.913Z,96577.70
2023-02-19T23:03:19.419Z,96584.39
2023-02-19T23:06:49.894Z,96586.46
2023-02-19T23:10:21.499Z,96583.86
2023-02-19T23:13:53.364Z,96587.27
2023-02-19T23:17:24.813Z,96592.48
2023-02-19T23:20:56.495Z,96591.98
2023-02-19T23:24:28.470Z,96598.52
2023-02-19T23:28:00.687Z,96603.25
2023-02-19T23:31:32.349Z,96602.14
2023-02-19T23:35:05.074Z,96606.94
2023-02-19T23:38:35.830Z,96605.20
2023-02-19T23:42:07.531Z,96619.54
2023-02-19T23:45:38.603Z,96615.05
2023-02-19T23:49:10.459Z,96632.97
2023-02-19T23:52:42.543Z,96643.98
2023-02-19T23:56:17.599Z,96640.86
2023-02-19T23:59:48.847Z,96649.77
